createdAt,value
2023-03-06T00:00:24.654Z,94223.00
2023-03-06T00:01:24.681Z,94223.00
2023-03-06T00:02:24.764Z,94223.00
2023-03-06T00:03:24.793Z,94223.00
2023-03-06T00:04:24.817Z,94223.00
2023-03-06T00:05:24.964Z,94223.00
2023-03-06T00:06:24.908Z,94221.00
2023-03-06T00:07:24.934Z,94223.00
2023-03-06T00:08:24.987Z,94223.00
2023-03-06T00:09:25.048Z,94221.00
2023-03-06T00:10:25.094Z,94223.00
2023-03-06T00:11:25.096Z,94223.00
2023-03-06T00:12:25.161Z,94223.00
2023-03-06T00:13:25.213Z,94225.00
2023-03-06T00:14:25.254Z,94223.00
2023-03-06T00:15:25.320Z,94225.00
2023-03-06T00:16:25.412Z,94223.00
2023-03-06T00:17:25.424Z,94223.00
2023-03-06T00:18:25.492Z,94221.00
2023-03-06T00:19:25.587Z,94221.00
2023-03-06T00:20:25.610Z,94219.00
2023-03-06T00:21:25.679Z,94217.00
2023-03-06T00:22:25.725Z,94219.00
2023-03-06T00:23:25.781Z,94219.00
2023-03-06T00:24:25.842Z,94217.00
2023-03-06T00:25:25.903Z,94217.00
2023-03-06T00:26:25.934Z,94213.00
2023-03-06T00:27:26.087Z,94217.00
2023-03-06T00:28:26.008Z,94215.00
2023-03-06T00:29:26.078Z,94215.00
2023-03-06T00:30:26.112Z,94215.00
2023-03-06T00:31:26.188Z,94213.00
2023-03-06T00:32:26.240Z,94213.00
2023-03-06T00:33:26.246Z,94213.00
2023-03-06T00:34:26.296Z,94211.00
2023-03-06T00:35:26.384Z,94213.00
2023-03-06T00:36:26.399Z,94211.00
2023-03-06T00:37:26.446Z,94211.00
2023-03-06T00:38:26.509Z,94211.00
2023-03-06T00:39:26.580Z,94211.00
2023-03-06T00:40:26.637Z,94209.00
2023-03-06T00:41:26.711Z,94209.00
2023-03-06T00:42:26.718Z,94205.00
2023-03-06T00:43:26.777Z,94207.00
2023-03-06T00:44:26.833Z,94205.00
2023-03-06T00:45:26.889Z,94203.00
2023-03-06T00:46:26.862Z,94203.00
2023-03-06T00:47:26.929Z,94203.00
2023-03-06T00:48:26.921Z,94203.00
2023-03-06T00:49:26.934Z,94199.00
2023-03-06T00:50:26.979Z,94199.00
2023-03-06T00:51:27.010Z,94197.00
2023-03-06T00:52:27.059Z,94197.00
2023-03-06T00:53:27.120Z,94197.00
2023-03-06T00:54:27.180Z,94195.00
2023-03-06T00:55:27.222Z,94193.00
2023-03-06T00:56:27.250Z,94193.00
2023-03-06T00:57:27.335Z,94191.00
2023-03-06T00:58:27.406Z,94191.00
2023-03-06T00:59:27.439Z,94189.00
2023-03-06T01:00:27.520Z,94191.00
2023-03-06T01:01:27.579Z,94191.00
2023-03-06T01:02:27.632Z,94191.00
2023-03-06T01:03:27.655Z,94189.00
2023-03-06T01:04:27.691Z,94187.00
2023-03-06T01:05:27.799Z,94185.00
2023-03-06T01:06:27.843Z,94184.00
2023-03-06T01:07:27.877Z,94184.00
2023-03-06T01:08:27.917Z,94182.00
2023-03-06T01:09:28.008Z,94180.00
2023-03-06T01:10:28.049Z,94180.00
2023-03-06T01:11:28.111Z,94180.00
2023-03-06T01:12:28.161Z,94180.00
2023-03-06T01:13:28.240Z,94178.00
2023-03-06T01:14:28.307Z,94172.00
2023-03-06T01:15:28.375Z,94170.00
2023-03-06T01:16:28.448Z,94172.00
2023-03-06T01:17:28.449Z,94166.00
2023-03-06T01:18:28.491Z,94166.00
2023-03-06T01:19:28.571Z,94162.00
2023-03-06T01:20:28.581Z,94162.00
2023-03-06T01:21:28.623Z,94160.00
2023-03-06T01:22:28.688Z,94158.00
2023-03-06T01:23:28.735Z,94158.00
2023-03-06T01:24:28.808Z,94158.00
2023-03-06T01:25:28.848Z,94158.00
2023-03-06T01:26:28.890Z,94154.00
2023-03-06T01:27:28.957Z,94156.00
2023-03-06T01:28:28.996Z,94154.00
2023-03-06T01:29:29.054Z,94154.00
2023-03-06T01:30:29.111Z,94152.00
2023-03-06T01:31:29.239Z,94148.00
2023-03-06T01:32:29.223Z,94148.00
2023-03-06T01:33:29.275Z,94150.00
2023-03-06T01:34:29.280Z,94145.00
2023-03-06T01:35:29.336Z,94143.00
2023-03-06T01:36:29.370Z,94141.00
2023-03-06T01:37:29.447Z,94141.00
2023-03-06T01:38:29.520Z,94141.00
2023-03-06T01:39:29.556Z,94141.00
2023-03-06T01:40:29.600Z,94137.00
2023-03-06T01:41:29.640Z,94137.00
2023-03-06T01:42:31.953Z,94137.00
2023-03-06T01:43:29.730Z,94137.00
2023-03-06T01:44:29.777Z,94141.00
2023-03-06T01:45:30.039Z,94141.00
2023-03-06T01:46:29.895Z,94135.00
2023-03-06T01:47:29.915Z,94131.00
2023-03-06T01:48:29.955Z,94135.00
2023-03-06T01:49:30.050Z,94123.00
2023-03-06T01:50:30.103Z,94131.00
2023-03-06T01:51:30.147Z,94119.00
2023-03-06T01:52:30.229Z,94117.00
2023-03-06T01:53:30.286Z,94113.00
2023-03-06T01:54:30.336Z,94113.00
2023-03-06T01:55:30.361Z,94115.00
2023-03-06T01:56:30.390Z,94113.00
2023-03-06T01:57:30.439Z,94109.00
2023-03-06T01:58:30.459Z,94109.00
2023-03-06T01:59:30.480Z,94105.00
2023-03-06T02:00:30.540Z,94107.00
2023-03-06T02:01:30.607Z,94105.00
2023-03-06T02:02:30.650Z,94103.00
2023-03-06T02:03:30.615Z,94101.00
2023-03-06T02:04:30.650Z,94101.00
2023-03-06T02:05:30.683Z,94101.00
2023-03-06T02:06:30.747Z,94097.00
2023-03-06T02:07:30.797Z,94097.00
2023-03-06T02:08:30.844Z,94095.00
2023-03-06T02:09:30.904Z,94093.00
2023-03-06T02:10:30.985Z,94092.00
2023-03-06T02:11:31.102Z,94093.00
2023-03-06T02:12:31.057Z,94092.00
2023-03-06T02:13:31.072Z,94095.00
2023-03-06T02:14:31.151Z,94092.00
2023-03-06T02:17:31.272Z,94092.00
2023-03-06T02:18:31.315Z,94090.00
2023-03-06T02:19:31.335Z,94090.00
2023-03-06T02:20:31.404Z,94088.00
2023-03-06T02:21:31.424Z,94086.00
2023-03-06T02:22:31.495Z,94084.00
2023-03-06T02:23:31.545Z,94084.00
2023-03-06T02:26:31.694Z,94082.00
2023-03-06T02:27:31.730Z,94078.00
2023-03-06T02:28:31.793Z,94080.00
2023-03-06T02:29:31.844Z,94078.00
2023-03-06T02:30:31.882Z,94076.00
2023-03-06T02:31:31.917Z,94078.00
2023-03-06T02:32:31.984Z,94078.00
2023-03-06T02:33:31.939Z,94076.00
2023-03-06T02:34:31.996Z,94076.00
2023-03-06T02:35:32.050Z,94072.00
2023-03-06T02:36:32.041Z,94072.00
2023-03-06T02:37:32.043Z,94068.00
2023-03-06T02:38:32.101Z,94070.00
2023-03-06T02:39:32.097Z,94068.00
2023-03-06T02:40:32.108Z,94066.00
2023-03-06T02:41:32.136Z,94066.00
2023-03-06T02:42:32.128Z,94066.00
2023-03-06T02:43:32.136Z,94066.00
2023-03-06T02:44:32.154Z,94062.00
2023-03-06T02:45:32.134Z,94064.00
2023-03-06T02:46:32.211Z,94060.00
2023-03-06T02:47:32.149Z,94058.00
2023-03-06T02:48:32.156Z,94054.00
2023-03-06T02:49:32.166Z,94054.00
2023-03-06T02:50:32.141Z,94052.00
2023-03-06T02:51:32.155Z,94058.00
2023-03-06T02:52:32.150Z,94054.00
2023-03-06T02:53:32.166Z,94056.00
2023-03-06T02:54:32.176Z,94052.00
2023-03-06T02:55:32.144Z,94052.00
2023-03-06T02:56:32.144Z,94048.00
2023-03-06T02:57:32.163Z,94048.00
2023-03-06T02:58:32.150Z,94046.00
2023-03-06T02:59:32.156Z,94045.00
2023-03-06T03:00:32.161Z,94045.00
2023-03-06T03:01:32.186Z,94043.00
2023-03-06T03:02:32.180Z,94039.00
2023-03-06T03:03:32.157Z,94037.00
2023-03-06T03:04:32.192Z,94035.00
2023-03-06T03:05:32.177Z,94035.00
2023-03-06T03:06:32.183Z,94035.00
2023-03-06T03:07:32.145Z,94033.00
2023-03-06T03:08:32.187Z,94033.00
2023-03-06T03:09:32.153Z,94027.00
2023-03-06T03:10:32.173Z,94029.00
2023-03-06T03:11:32.162Z,94027.00
2023-03-06T03:12:32.152Z,94029.00
2023-03-06T03:13:32.138Z,94025.00
2023-03-06T03:14:32.162Z,94025.00
2023-03-06T03:15:32.311Z,94025.00
2023-03-06T03:16:32.172Z,94029.00
2023-03-06T03:17:32.157Z,94025.00
2023-03-06T03:18:32.164Z,94027.00
2023-03-06T03:19:32.152Z,94025.00
2023-03-06T03:20:32.161Z,94025.00
2023-03-06T03:21:32.144Z,94021.00
2023-03-06T03:22:32.129Z,94021.00
2023-03-06T03:23:32.117Z,94021.00
2023-03-06T03:24:32.180Z,94019.00
2023-03-06T03:25:32.119Z,94019.00
2023-03-06T03:26:32.138Z,94015.00
2023-03-06T06:34:37.985Z,93913.00
2023-03-06T07:51:38.062Z,93929.00
2023-03-06T07:52:38.056Z,93929.00
2023-03-06T07:57:38.086Z,93933.00
2023-03-06T08:07:37.906Z,93933.00
2023-03-06T08:08:37.918Z,93935.00
2023-03-06T08:09:37.973Z,93935.00
2023-03-06T08:10:37.987Z,93933.00
2023-03-06T08:11:38.033Z,93933.00
2023-03-06T08:12:38.083Z,93931.00
2023-03-06T08:13:38.051Z,93931.00
2023-03-06T08:14:39.123Z,93931.00
2023-03-06T08:15:38.144Z,93929.00
2023-03-06T08:16:38.251Z,93927.00
2023-03-06T08:17:38.585Z,93931.00
2023-03-06T08:18:38.289Z,93929.00
2023-03-06T08:19:38.334Z,93931.00
2023-03-06T08:20:38.314Z,93931.00
2023-03-06T08:21:38.406Z,93929.00
2023-03-06T08:22:38.584Z,93929.00
2023-03-06T08:23:38.424Z,93927.00
2023-03-06T08:24:38.456Z,93927.00
2023-03-06T08:25:38.501Z,93927.00
2023-03-06T08:26:38.547Z,93925.00
2023-03-06T08:27:39.060Z,93925.00
2023-03-06T08:28:38.652Z,93925.00
2023-03-06T08:29:38.639Z,93927.00
2023-03-06T08:30:38.768Z,93929.00
2023-03-06T08:31:38.789Z,93933.00
2023-03-06T08:32:39.154Z,93929.00
2023-03-06T08:33:38.844Z,93929.00
2023-03-06T08:34:38.881Z,93929.00
2023-03-06T08:35:38.986Z,93929.00
2023-03-06T08:36:39.018Z,93929.00
2023-03-06T08:37:39.641Z,93927.00
2023-03-06T08:38:39.140Z,93927.00
2023-03-06T08:39:39.138Z,93927.00
2023-03-06T08:40:39.258Z,93925.00
2023-03-06T08:41:39.313Z,93927.00
2023-03-06T08:42:39.567Z,93925.00
2023-03-06T08:43:39.433Z,93929.00
2023-03-06T08:44:39.445Z,93927.00
2023-03-06T08:45:39.470Z,93927.00
2023-03-06T08:46:39.497Z,93929.00
2023-03-06T08:47:40.524Z,93931.00
2023-03-06T08:48:39.517Z,93935.00
2023-03-06T08:49:39.488Z,93935.00
2023-03-06T08:50:39.522Z,93933.00
2023-03-06T08:51:39.573Z,93939.00
2023-03-06T08:52:39.646Z,93933.00
2023-03-06T08:53:43.608Z,93933.00
2023-03-06T08:54:39.717Z,93935.00
2023-03-06T08:55:40.595Z,93933.00
2023-03-06T08:56:39.641Z,93929.00
2023-03-06T08:57:39.677Z,93931.00
2023-03-06T08:58:39.664Z,93931.00
2023-03-06T08:59:39.666Z,93933.00
2023-03-06T09:00:39.685Z,93935.00
2023-03-06T09:01:39.729Z,93937.00
2023-03-06T09:02:39.680Z,93933.00
2023-03-06T09:03:39.658Z,93931.00
2023-03-06T09:04:39.609Z,93929.00
2023-03-06T09:05:39.608Z,93927.00
2023-03-06T09:06:39.589Z,93927.00
2023-03-06T09:07:39.604Z,93925.00
2023-03-06T09:08:39.614Z,93929.00
2023-03-06T09:09:39.552Z,93931.00
2023-03-06T09:10:39.588Z,93927.00
2023-03-06T09:11:39.593Z,93927.00
2023-03-06T09:12:49.934Z,93925.00
2023-03-06T09:13:40.581Z,93923.00
2023-03-06T09:14:39.552Z,93923.00
2023-03-06T09:15:39.552Z,93923.00
2023-03-06T09:16:39.601Z,93925.00
2023-03-06T09:17:39.566Z,93923.00
2023-03-06T09:18:39.593Z,93917.00
2023-03-06T09:19:39.503Z,93915.00
2023-03-06T09:20:39.605Z,93913.00
2023-03-06T09:21:39.531Z,93915.00
2023-03-06T09:22:39.507Z,93913.00
2023-03-06T09:23:39.571Z,93919.00
2023-03-06T09:24:40.165Z,93919.00
2023-03-06T09:25:39.489Z,93919.00
2023-03-06T09:26:46.296Z,93919.00
2023-03-06T09:27:40.452Z,93917.00
2023-03-06T09:28:39.491Z,93917.00
2023-03-06T09:29:39.438Z,93915.00
2023-03-06T09:30:39.455Z,93917.00
2023-03-06T09:31:39.402Z,93919.00
2023-03-06T09:32:39.489Z,93917.00
2023-03-06T09:33:39.640Z,93919.00
2023-03-06T09:34:39.432Z,93915.00
2023-03-06T09:35:39.439Z,93915.00
2023-03-06T09:36:53.726Z,93915.00
2023-03-06T09:37:40.397Z,93915.00
2023-03-06T09:38:39.404Z,93915.00
2023-03-06T09:39:39.405Z,93917.00
2023-03-06T09:40:39.518Z,93917.00
2023-03-06T09:41:39.379Z,93915.00
2023-03-06T09:42:39.350Z,93911.00
2023-03-06T09:43:39.367Z,93909.00
2023-03-06T09:44:39.339Z,93909.00
2023-03-06T09:45:39.459Z,93909.00
2023-03-06T09:46:39.306Z,93907.00
2023-03-06T09:47:39.305Z,93907.00
2023-03-06T09:48:39.324Z,93907.00
2023-03-06T09:49:39.327Z,93909.00
2023-03-06T09:50:39.299Z,93907.00
2023-03-06T09:51:39.282Z,93909.00
2023-03-06T09:52:39.392Z,93909.00
2023-03-06T09:53:39.379Z,93907.00
2023-03-06T09:54:39.266Z,93909.00
2023-03-06T09:55:39.277Z,93907.00
2023-03-06T09:56:39.342Z,93901.00
2023-03-06T09:57:39.278Z,93903.00
2023-03-06T09:58:39.255Z,93905.00
2023-03-06T09:59:39.234Z,93905.00
2023-03-06T10:00:39.251Z,93907.00
2023-03-06T10:01:39.247Z,93907.00
2023-03-06T10:02:39.341Z,93905.00
2023-03-06T10:03:39.225Z,93903.00
2023-03-06T10:04:39.285Z,93903.00
2023-03-06T10:05:39.273Z,93905.00
2023-03-06T10:06:39.278Z,93901.00
2023-03-06T10:07:39.348Z,93901.00
2023-03-06T10:08:39.414Z,93896.00
2023-03-06T10:09:39.457Z,93894.00
2023-03-06T10:10:39.527Z,93896.00
2023-03-06T10:11:39.588Z,93896.00
2023-03-06T10:12:39.626Z,93896.00
2023-03-06T10:13:40.114Z,93897.00
2023-03-06T10:14:39.808Z,93899.00
2023-03-06T10:15:39.853Z,93897.00
2023-03-06T10:16:39.891Z,93896.00
2023-03-06T10:17:40.584Z,93894.00
2023-03-06T10:18:40.125Z,93894.00
2023-03-06T10:19:40.071Z,93890.00
2023-03-06T10:20:40.096Z,93890.00
2023-03-06T10:21:40.154Z,93892.00
2023-03-06T10:22:40.217Z,93890.00
2023-03-06T10:23:40.602Z,93888.00
2023-03-06T10:24:40.250Z,93886.00
2023-03-06T10:25:40.296Z,93884.00
2023-03-06T10:26:40.488Z,93884.00
2023-03-06T10:27:40.389Z,93880.00
2023-03-06T10:28:40.458Z,93882.00
2023-03-06T10:29:42.199Z,93880.00
2023-03-06T10:30:40.457Z,93880.00
2023-03-06T10:31:40.421Z,93880.00
2023-03-06T10:32:48.367Z,93880.00
2023-03-06T10:33:41.412Z,93878.00
2023-03-06T10:34:40.446Z,93876.00
2023-03-06T10:35:40.537Z,93874.00
2023-03-06T10:36:40.419Z,93866.00
2023-03-06T10:37:40.397Z,93860.00
2023-03-06T10:38:40.660Z,93858.00
2023-03-06T10:39:40.360Z,93858.00
2023-03-06T10:40:40.755Z,93856.00
2023-03-06T10:41:40.375Z,93856.00
2023-03-06T10:42:41.142Z,93856.00
2023-03-06T10:43:40.363Z,93860.00
2023-03-06T10:44:40.687Z,93858.00
2023-03-06T10:45:49.034Z,93856.00
2023-03-06T10:46:41.376Z,93856.00
2023-03-06T10:47:40.394Z,93854.00
2023-03-06T11:07:41.681Z,93805.00
2023-03-06T11:08:41.109Z,93804.00
2023-03-06T11:09:41.015Z,93802.00
2023-03-06T11:10:40.844Z,93800.00
2023-03-06T11:11:40.926Z,93794.00
2023-03-06T11:12:40.973Z,93796.00
2023-03-06T11:13:41.012Z,93798.00
2023-03-06T11:14:41.109Z,93794.00
2023-03-06T11:15:41.135Z,93796.00
2023-03-06T11:16:41.215Z,93798.00
2023-03-06T11:17:41.200Z,93796.00
2023-03-06T11:18:41.358Z,93796.00
2023-03-06T11:19:41.335Z,93786.00
2023-03-06T11:20:51.128Z,93780.00
2023-03-06T11:21:42.368Z,93774.00
2023-03-06T11:22:41.403Z,93772.00
2023-03-06T11:23:41.362Z,93770.00
2023-03-06T11:24:41.624Z,93770.00
2023-03-06T11:25:41.323Z,93766.00
2023-03-06T11:26:41.356Z,93768.00
2023-03-06T11:27:41.313Z,93770.00
2023-03-06T11:28:41.324Z,93770.00
2023-03-06T11:29:41.339Z,93762.00
2023-03-06T11:30:41.333Z,93757.00
2023-03-06T11:31:41.391Z,93758.00
2023-03-06T11:32:41.488Z,93753.00
2023-03-06T11:33:41.379Z,93749.00
2023-03-06T11:34:41.381Z,93749.00
2023-03-06T11:35:41.447Z,93751.00
2023-03-06T11:36:41.432Z,93751.00
2023-03-06T11:37:41.377Z,93749.00
2023-03-06T13:32:07.640Z,93623.00
2023-03-06T13:33:07.578Z,93625.00
2023-03-06T13:34:07.575Z,93625.00
2023-03-06T13:35:07.595Z,93621.00
2023-03-06T13:36:07.638Z,93625.00
2023-03-06T13:37:07.597Z,93627.00
2023-03-06T13:38:07.649Z,93625.00
2023-03-06T13:39:07.698Z,93625.00
2023-03-06T13:40:07.661Z,93619.00
2023-03-06T13:41:07.661Z,93619.00
2023-03-06T13:42:07.672Z,93621.00
2023-03-06T13:43:07.689Z,93621.00
2023-03-06T13:44:07.719Z,93617.00
2023-03-06T13:45:07.698Z,93617.00
2023-03-06T14:15:08.215Z,93619.00
2023-03-06T14:27:08.461Z,93621.00
2023-03-06T14:28:14.039Z,93625.00
2023-03-06T14:29:09.492Z,93627.00
2023-03-06T14:30:08.468Z,93627.00
2023-03-06T14:31:08.512Z,93627.00
2023-03-06T14:32:08.493Z,93637.00
2023-03-06T14:33:08.472Z,93629.00
2023-03-06T14:34:08.484Z,93631.00
2023-03-06T14:35:08.480Z,93633.00
2023-03-06T14:36:08.454Z,93631.00
2023-03-06T14:37:08.468Z,93637.00
2023-03-06T14:38:08.499Z,93631.00
2023-03-06T14:39:08.445Z,93633.00
2023-03-06T14:40:08.474Z,93641.00
2023-03-06T14:41:08.421Z,93637.00
2023-03-06T14:42:08.426Z,93633.00
2023-03-06T14:43:08.403Z,93635.00
2023-03-06T14:44:08.395Z,93643.00
2023-03-06T14:45:08.401Z,93645.00
2023-03-06T14:46:08.444Z,93639.00
2023-03-06T14:47:08.373Z,93641.00
2023-03-06T14:48:08.401Z,93641.00
2023-03-06T14:49:08.380Z,93639.00
2023-03-06T14:50:08.434Z,93645.00
2023-03-06T14:51:08.446Z,93645.00
2023-03-06T14:52:08.470Z,93643.00
2023-03-06T14:53:08.501Z,93647.00
2023-03-06T14:54:08.503Z,93647.00
2023-03-06T14:55:08.562Z,93641.00
2023-03-06T14:56:08.619Z,93645.00
2023-03-06T14:57:08.605Z,93647.00
2023-03-06T14:58:08.636Z,93645.00
2023-03-06T14:59:08.704Z,93647.00
2023-03-06T15:00:08.701Z,93651.00
2023-03-06T15:01:08.748Z,93649.00
2023-03-06T15:02:08.827Z,93645.00
2023-03-06T15:03:08.850Z,93651.00
2023-03-06T15:04:08.781Z,93649.00
2023-03-06T15:05:08.850Z,93653.00
2023-03-06T15:06:08.878Z,93651.00
2023-03-06T15:07:08.901Z,93649.00
2023-03-06T15:08:08.932Z,93661.00
2023-03-06T15:09:08.951Z,93657.00
2023-03-06T15:10:09.032Z,93653.00
2023-03-06T15:11:09.016Z,93651.00
2023-03-06T15:12:09.050Z,93653.00
2023-03-06T15:13:09.098Z,93659.00
2023-03-06T15:14:09.160Z,93657.00
2023-03-06T15:15:09.163Z,93653.00
2023-03-06T15:16:09.293Z,93661.00
2023-03-06T15:17:09.258Z,93651.00
2023-03-06T15:18:09.302Z,93651.00
2023-03-06T15:19:09.345Z,93655.00
2023-03-06T15:20:09.401Z,93655.00
2023-03-06T15:21:09.461Z,93661.00
2023-03-06T15:22:09.444Z,93659.00
2023-03-06T15:23:09.517Z,93659.00
2023-03-06T15:24:09.572Z,93659.00
2023-03-06T15:25:09.600Z,93659.00
2023-03-06T15:26:09.620Z,93659.00
2023-03-06T15:27:09.658Z,93659.00
2023-03-06T15:28:09.722Z,93661.00
2023-03-06T15:29:10.290Z,93661.00
2023-03-06T15:30:09.869Z,93670.00
2023-03-06T15:31:10.021Z,93672.00
2023-03-06T15:32:09.929Z,93672.00
2023-03-06T15:33:10.005Z,93672.00
2023-03-06T15:34:10.013Z,93676.00
2023-03-06T15:35:09.990Z,93670.00
2023-03-06T15:36:10.069Z,93668.00
2023-03-06T15:37:10.135Z,93670.00
2023-03-06T15:38:10.130Z,93670.00
2023-03-06T15:39:10.191Z,93672.00
2023-03-06T15:40:10.209Z,93676.00
2023-03-06T15:41:10.294Z,93674.00
2023-03-06T15:42:10.313Z,93676.00
2023-03-06T15:43:10.359Z,93672.00
2023-03-06T15:44:10.404Z,93670.00
2023-03-06T15:45:10.442Z,93670.00
2023-03-06T15:46:10.585Z,93674.00
2023-03-06T15:47:10.563Z,93672.00
2023-03-06T15:48:10.564Z,93668.00
2023-03-06T15:49:10.633Z,93668.00
2023-03-06T15:50:10.664Z,93666.00
2023-03-06T15:51:10.811Z,93672.00
2023-03-06T15:52:10.752Z,93670.00
2023-03-06T15:53:10.791Z,93676.00
2023-03-06T15:54:12.783Z,93676.00
2023-03-06T15:55:10.918Z,93676.00
2023-03-06T15:56:10.956Z,93682.00
2023-03-06T15:57:10.999Z,93686.00
2023-03-06T15:58:11.048Z,93684.00
2023-03-06T15:59:11.107Z,93684.00
2023-03-06T16:00:26.419Z,93686.00
2023-03-06T16:01:12.148Z,93680.00
2023-03-06T16:02:11.143Z,93686.00
2023-03-06T16:03:11.112Z,93682.00
2023-03-06T16:04:11.139Z,93680.00
2023-03-06T16:05:11.099Z,93680.00
2023-03-06T16:06:11.106Z,93680.00
2023-03-06T16:07:11.098Z,93680.00
2023-03-06T16:08:11.060Z,93682.00
2023-03-06T16:09:11.074Z,93680.00
2023-03-06T16:10:11.080Z,93676.00
2023-03-06T16:11:11.114Z,93680.00
2023-03-06T16:12:11.202Z,93682.00
2023-03-06T16:13:11.231Z,93680.00
2023-03-06T16:14:11.288Z,93684.00
2023-03-06T16:15:11.360Z,93684.00
2023-03-06T16:16:11.485Z,93688.00
2023-03-06T16:17:11.481Z,93688.00
2023-03-06T16:18:11.523Z,93688.00
2023-03-06T16:19:20.176Z,93688.00
2023-03-06T16:20:12.532Z,93694.00
2023-03-06T16:21:11.540Z,93690.00
2023-03-06T16:22:11.571Z,93690.00
2023-03-06T16:23:11.522Z,93692.00
2023-03-06T16:24:11.524Z,93690.00
2023-03-06T16:25:11.524Z,93690.00
2023-03-06T16:26:11.526Z,93696.00
2023-03-06T16:27:11.501Z,93694.00
2023-03-06T16:28:11.503Z,93696.00
2023-03-06T16:29:11.584Z,93698.00
2023-03-06T16:30:11.627Z,93700.00
2023-03-06T16:31:11.730Z,93702.00
2023-03-06T16:32:11.865Z,93708.00
2023-03-06T16:33:11.855Z,93700.00
2023-03-06T16:34:11.884Z,93706.00
2023-03-06T16:35:11.959Z,93706.00
2023-03-06T16:36:12.045Z,93706.00
2023-03-06T16:37:12.076Z,93708.00
2023-03-06T16:38:12.159Z,93708.00
2023-03-06T16:39:12.246Z,93708.00
2023-03-06T16:40:12.325Z,93708.00
2023-03-06T16:41:12.360Z,93698.00
2023-03-06T16:42:12.388Z,93702.00
2023-03-06T16:43:12.465Z,93704.00
2023-03-06T16:44:12.531Z,93708.00
2023-03-06T16:45:12.584Z,93708.00
2023-03-06T16:46:12.749Z,93706.00
2023-03-06T16:47:12.708Z,93704.00
2023-03-06T16:48:12.740Z,93710.00
2023-03-06T16:49:12.818Z,93713.00
2023-03-06T16:50:12.889Z,93715.00
2023-03-06T16:51:12.931Z,93715.00
2023-03-06T16:52:13.005Z,93719.00
2023-03-06T16:53:13.051Z,93723.00
2023-03-06T16:54:13.129Z,93725.00
2023-03-06T16:55:13.239Z,93723.00
2023-03-06T16:56:13.292Z,93721.00
2023-03-06T16:57:13.304Z,93723.00
2023-03-06T16:58:13.361Z,93725.00
2023-03-06T16:59:13.447Z,93723.00
2023-03-06T17:00:13.464Z,93727.00
2023-03-06T17:01:13.544Z,93731.00
2023-03-06T17:02:13.579Z,93731.00
2023-03-06T17:03:13.621Z,93735.00
2023-03-06T17:04:13.642Z,93733.00
2023-03-06T17:05:13.676Z,93735.00
2023-03-06T17:06:13.704Z,93735.00
2023-03-06T17:07:13.756Z,93731.00
2023-03-06T17:08:13.754Z,93735.00
2023-03-06T17:09:13.852Z,93739.00
2023-03-06T17:10:13.836Z,93741.00
2023-03-06T17:11:13.929Z,93741.00
2023-03-06T17:12:13.919Z,93745.00
2023-03-06T17:13:13.998Z,93747.00
2023-03-06T17:14:14.058Z,93749.00
2023-03-06T17:15:14.073Z,93747.00
2023-03-06T17:16:14.232Z,93751.00
2023-03-06T17:17:14.161Z,93749.00
2023-03-06T17:18:14.223Z,93751.00
2023-03-06T17:19:14.327Z,93753.00
2023-03-06T17:20:14.330Z,93757.00
2023-03-06T17:21:14.376Z,93757.00
2023-03-06T17:22:14.452Z,93757.00
2023-03-06T17:23:14.505Z,93755.00
2023-03-06T17:24:14.586Z,93758.00
2023-03-06T17:25:14.666Z,93760.00
2023-03-06T17:26:14.724Z,93758.00
2023-03-06T17:27:14.728Z,93760.00
2023-03-06T17:28:14.811Z,93762.00
2023-03-06T17:29:14.856Z,93766.00
2023-03-06T17:30:14.935Z,93768.00
2023-03-06T17:31:15.008Z,93766.00
2023-03-06T17:32:15.113Z,93768.00
2023-03-06T17:33:15.131Z,93772.00
2023-03-06T17:34:15.163Z,93766.00
2023-03-06T17:35:15.257Z,93770.00
2023-03-06T17:36:15.302Z,93768.00
2023-03-06T17:37:15.355Z,93774.00
2023-03-06T17:38:15.427Z,93776.00
2023-03-06T17:39:15.446Z,93776.00
2023-03-06T17:40:15.538Z,93774.00
2023-03-06T17:41:15.731Z,93778.00
2023-03-06T17:42:15.601Z,93780.00
2023-03-06T17:43:15.614Z,93778.00
2023-03-06T17:44:15.653Z,93778.00
2023-03-06T17:45:15.652Z,93778.00
2023-03-06T17:46:15.752Z,93782.00
2023-03-06T17:47:15.767Z,93780.00
2023-03-06T17:48:15.817Z,93784.00
2023-03-06T17:49:15.827Z,93786.00
2023-03-06T17:50:15.903Z,93790.00
2023-03-06T17:51:15.926Z,93788.00
2023-03-06T17:52:15.979Z,93786.00
2023-03-06T17:53:15.992Z,93788.00
2023-03-06T17:54:16.029Z,93788.00
2023-03-06T17:55:16.046Z,93788.00
2023-03-06T17:56:16.132Z,93792.00
2023-03-06T17:57:16.147Z,93792.00
2023-03-06T17:58:16.174Z,93796.00
2023-03-06T17:59:16.180Z,93796.00
2023-03-06T18:00:16.213Z,93796.00
2023-03-06T18:01:16.261Z,93798.00
2023-03-06T18:02:16.250Z,93796.00
2023-03-06T18:03:16.330Z,93800.00
2023-03-06T18:04:16.299Z,93800.00
2023-03-06T18:05:16.409Z,93802.00
2023-03-06T18:06:16.346Z,93800.00
2023-03-06T18:07:16.383Z,93804.00
2023-03-06T18:08:16.375Z,93802.00
2023-03-06T18:09:16.403Z,93802.00
2023-03-06T18:10:16.420Z,93805.00
2023-03-06T18:11:16.433Z,93805.00
2023-03-06T18:12:16.515Z,93805.00
2023-03-06T18:13:16.474Z,93807.00
2023-03-06T18:14:16.486Z,93807.00
2023-03-06T18:15:16.509Z,93809.00
2023-03-06T18:16:16.640Z,93809.00
2023-03-06T18:17:16.562Z,93813.00
2023-03-06T18:18:16.555Z,93815.00
2023-03-06T18:19:16.611Z,93815.00
2023-03-06T18:20:16.598Z,93813.00
2023-03-06T18:21:16.680Z,93813.00
2023-03-06T18:22:16.670Z,93811.00
2023-03-06T18:23:16.664Z,93813.00
2023-03-06T18:24:16.716Z,93813.00
2023-03-06T18:25:16.764Z,93815.00
2023-03-06T18:26:16.786Z,93813.00
2023-03-06T18:27:16.822Z,93813.00
2023-03-06T18:28:16.832Z,93815.00
2023-03-06T18:29:16.841Z,93813.00
2023-03-06T18:30:16.883Z,93813.00
2023-03-06T20:09:18.771Z,93888.00
2023-03-06T20:10:18.831Z,93886.00
2023-03-06T20:11:18.840Z,93888.00
2023-03-06T20:12:18.866Z,93890.00
2023-03-06T20:13:18.865Z,93892.00
2023-03-06T20:14:18.874Z,93888.00
2023-03-06T20:15:18.908Z,93888.00
2023-03-06T20:16:18.944Z,93890.00
2023-03-06T20:17:18.955Z,93888.00
2023-03-06T20:18:18.995Z,93886.00
2023-03-06T20:19:18.986Z,93886.00
2023-03-06T20:20:19.012Z,93886.00
2023-03-06T20:21:19.059Z,93888.00
2023-03-06T20:22:19.080Z,93888.00
2023-03-06T20:23:19.079Z,93892.00
2023-03-06T20:24:19.101Z,93890.00
2023-03-06T20:25:19.136Z,93892.00
2023-03-06T20:26:19.154Z,93894.00
2023-03-06T20:27:19.166Z,93896.00
2023-03-06T20:28:19.200Z,93897.00
2023-03-06T20:29:19.213Z,93896.00
2023-03-06T20:30:19.238Z,93899.00
2023-03-06T20:31:19.316Z,93899.00
2023-03-06T20:32:19.879Z,93897.00
2023-03-06T20:33:19.304Z,93899.00
2023-03-06T20:34:19.334Z,93899.00
2023-03-06T20:35:19.350Z,93903.00
2023-03-06T20:36:19.430Z,93901.00
2023-03-06T20:37:19.418Z,93901.00
2023-03-06T20:38:19.485Z,93905.00
2023-03-06T20:39:19.453Z,93905.00
2023-03-06T20:40:19.546Z,93907.00
2023-03-06T20:41:19.553Z,93907.00
2023-03-06T20:42:19.542Z,93907.00
2023-03-06T20:43:19.571Z,93909.00
2023-03-06T20:44:19.622Z,93907.00
2023-03-06T20:45:19.615Z,93907.00
2023-03-06T20:46:19.709Z,93907.00
2023-03-06T20:47:19.663Z,93907.00
2023-03-06T20:48:19.681Z,93905.00
2023-03-06T20:49:19.719Z,93907.00
2023-03-06T20:50:19.781Z,93909.00
2023-03-06T20:51:19.773Z,93911.00
2023-03-06T20:52:19.800Z,93913.00
2023-03-06T20:53:19.819Z,93913.00
2023-03-06T20:54:19.856Z,93917.00
2023-03-06T20:55:19.875Z,93915.00